Time;durP1;ratioP1;P1;durP2;ratioP2;P2;SDS_P1;SDS_P2;PMS_P1;PMS_P2;Temp;Humidity;BMP_temperature;BMP_pressure;BME280_temperature;BME280_humidity;BME280_pressure;Samples;Min_cycle;Max_cycle;Signal;HPM_P1;HPM_P2
2024/01/24 00:00:46;;;;;;;11.23;6.33;;;;;;;11.94;90.75;101148.50;4957654;28;20222;-75
2024/01/24 00:03:13;;;;;;;12.53;6.73;;;;;;;12.00;90.32;101139.88;4958217;28;20278;-75
2024/01/24 00:05:40;;;;;;;13.90;7.47;;;;;;;12.04;90.30;101122.50;4957562;28;20274;-75
2024/01/24 00:08:06;;;;;;;12.30;6.30;;;;;;;12.06;90.33;101112.44;4957536;28;20781;-75
2024/01/24 00:10:32;;;;;;;16.27;6.63;;;;;;;12.16;89.91;101107.88;4957507;28;20246;-75
2024/01/24 00:12:59;;;;;;;17.90;7.23;;;;;;;12.16;90.23;101099.84;4956832;28;20191;-75
2024/01/24 00:15:25;;;;;;;11.23;7.00;;;;;;;12.16;90.31;101091.78;4957413;28;20198;-75
2024/01/24 00:17:52;;;;;;;13.93;6.80;;;;;;;12.13;90.53;101065.31;4955948;28;20299;-75
2024/01/24 00:20:18;;;;;;;13.70;6.87;;;;;;;12.17;90.77;101072.03;4957348;28;20187;-75
2024/01/24 00:22:45;;;;;;;12.27;7.37;;;;;;;12.17;90.38;101065.84;4957452;28;20198;-76
2024/01/24 00:25:11;;;;;;;13.10;8.30;;;;;;;12.19;90.55;101075.41;4957822;28;20587;-75
2024/01/24 00:27:38;;;;;;;8.17;7.40;;;;;;;12.16;90.89;101056.09;4957387;28;20214;-76
2024/01/24 00:30:05;;;;;;;16.27;7.10;;;;;;;12.21;90.57;101043.94;4957427;28;20225;-75
2024/01/24 00:32:32;;;;;;;11.90;7.87;;;;;;;12.23;90.62;101052.66;4957103;28;20201;-75
2024/01/24 00:34:58;;;;;;;8.53;7.70;;;;;;;12.31;90.32;101036.63;4957068;28;20191;-76
2024/01/24 00:37:25;;;;;;;12.20;7.57;;;;;;;12.30;90.24;101040.31;4956962;28;20225;-75
2024/01/24 00:39:51;;;;;;;10.30;6.53;;;;;;;12.38;89.86;101027.97;4957201;28;20210;-76
2024/01/24 00:42:18;;;;;;;6.77;6.20;;;;;;;12.34;89.78;101024.78;4957202;28;20198;-76
2024/01/24 00:44:47;;;;;;;14.40;7.03;;;;;;;12.36;89.76;101033.47;4957421;28;20218;-75
2024/01/24 00:47:14;;;;;;;13.03;7.60;;;;;;;12.40;89.49;101050.94;4956767;28;20206;-75
2024/01/24 00:49:40;;;;;;;8.53;7.20;;;;;;;12.49;88.94;101060.75;4956783;28;20674;-75
2024/01/24 00:52:06;;;;;;;12.07;6.80;;;;;;;12.49;88.76;101062.56;4956748;28;20194;-75
2024/01/24 00:54:33;;;;;;;10.13;6.17;;;;;;;12.55;88.86;101049.41;4956724;28;20238;-76
2024/01/24 00:57:00;;;;;;;6.83;6.23;;;;;;;12.51;89.11;101028.41;4956588;28;20246;-75
2024/01/24 00:59:26;;;;;;;7.07;5.33;;;;;;;12.58;88.30;101016.91;4957060;28;20559;-76
2024/01/24 01:01:52;;;;;;;5.37;5.03;;;;;;;12.58;88.93;101021.41;4957052;28;20201;-76
2024/01/24 01:04:19;;;;;;;5.67;5.13;;;;;;;12.58;88.89;101021.41;4956534;28;20186;-75
2024/01/24 01:06:45;;;;;;;8.03;5.07;;;;;;;12.58;89.04;101033.00;4956914;28;20213;-75
2024/01/24 01:09:12;;;;;;;5.53;5.10;;;;;;;12.60;89.17;101030.97;4956925;28;20213;-75
2024/01/24 01:11:38;;;;;;;7.00;6.27;;;;;;;12.61;88.79;101032.66;4956384;28;20277;-75
2024/01/24 01:14:05;;;;;;;6.83;6.13;;;;;;;12.65;88.75;101017.94;4956611;28;20190;-75
2024/01/24 01:16:31;;;;;;;7.20;6.53;;;;;;;12.63;88.96;101030.69;4956486;28;20312;-75
2024/01/24 01:18:58;;;;;;;7.87;5.77;;;;;;;12.66;88.30;101035.72;4956476;28;20733;-76
2024/01/24 01:21:25;;;;;;;6.70;5.87;;;;;;;12.69;88.35;101007.72;4956199;28;20249;-76
2024/01/24 01:23:51;;;;;;;18.03;5.60;;;;;;;12.71;88.67;101001.22;4955186;28;20375;-75
2024/01/24 01:26:17;;;;;;;5.50;5.30;;;;;;;12.70;88.10;100999.53;4956032;28;20253;-74
2024/01/24 01:28:44;;;;;;;7.60;5.37;;;;;;;12.75;88.25;101015.16;4956681;28;20582;-75
2024/01/24 01:31:10;;;;;;;7.90;4.87;;;;;;;12.78;87.80;101012.16;4956309;28;20610;-75
2024/01/24 01:33:37;;;;;;;6.27;4.27;;;;;;;12.87;87.65;101015.72;4956259;28;20187;-75
2024/01/24 01:36:04;;;;;;;10.33;4.50;;;;;;;12.88;87.20;101009.34;4955958;28;20658;-75
2024/01/24 01:38:43;;;;;;;4.80;4.37;;;;;;;12.82;86.91;101024.25;4956101;28;20253;-75
2024/01/24 01:41:10;;;;;;;3.67;3.37;;;;;;;12.82;87.42;101009.00;4956160;28;20190;-76
2024/01/24 01:43:36;;;;;;;4.80;4.60;;;;;;;12.93;86.67;101012.41;4956097;28;20182;-75
2024/01/24 01:46:11;;;;;;;4.13;3.83;;;;;;;12.96;86.80;101006.72;4956052;28;20271;-75
2024/01/24 01:48:38;;;;;;;7.53;4.63;;;;;;;12.99;86.14;101006.38;4955698;28;20574;-75
2024/01/24 01:51:05;;;;;;;6.90;4.13;;;;;;;12.99;86.08;101009.06;4955667;28;20249;-75
2024/01/24 01:53:38;;;;;;;4.67;3.40;;;;;;;13.14;85.09;101008.34;4955657;28;20695;-75
2024/01/24 01:56:09;;;;;;;3.10;2.90;;;;;;;13.11;85.47;101011.34;4955931;28;20187;-75
2024/01/24 01:58:37;;;;;;;4.80;4.07;;;;;;;13.11;86.14;101007.84;4955759;28;20214;-75
2024/01/24 02:01:05;;;;;;;5.57;3.40;;;;;;;13.05;87.12;101011.13;4955802;28;20194;-75
2024/01/24 02:03:37;;;;;;;3.93;3.63;;;;;;;12.96;87.19;100998.66;4954544;29;20195;-75
2024/01/24 02:06:04;;;;;;;4.67;3.67;;;;;;;12.97;87.85;101019.13;4955431;28;20662;-75
2024/01/24 02:08:35;;;;;;;3.07;2.90;;;;;;;12.90;87.49;101026.97;4955376;28;20258;-75
2024/01/24 02:11:03;;;;;;;3.90;2.90;;;;;;;12.93;87.26;101007.03;4955416;28;20197;-75
2024/01/24 02:13:32;;;;;;;2.50;2.40;;;;;;;12.96;86.72;101004.88;4955940;28;20197;-75
2024/01/24 02:15:59;;;;;;;2.47;2.33;;;;;;;12.99;86.60;100992.97;4955644;28;20198;-75
2024/01/24 02:18:26;;;;;;;2.73;2.50;;;;;;;13.05;85.79;100992.34;4955194;28;20222;-75
2024/01/24 02:20:53;;;;;;;3.10;2.07;;;;;;;13.08;85.90;101006.28;4955287;28;20292;-75
2024/01/24 02:23:22;;;;;;;2.03;2.03;;;;;;;13.14;85.26;100986.03;4955118;28;20705;-75
2024/01/24 02:25:49;;;;;;;2.53;2.43;;;;;;;13.15;85.20;100977.00;4955246;28;20237;-75
2024/01/24 02:28:16;;;;;;;3.30;3.10;;;;;;;13.15;85.02;100977.00;4955153;28;20268;-75
2024/01/24 02:30:43;;;;;;;2.13;2.13;;;;;;;13.22;84.51;100969.97;4955177;28;20198;-75
2024/01/24 02:33:10;;;;;;;1.97;1.87;;;;;;;13.28;84.18;100963.94;4955443;28;20249;-75
2024/01/24 02:35:36;;;;;;;2.30;1.67;;;;;;;13.25;84.24;100977.69;4958443;28;20190;-75
2024/01/24 02:38:03;;;;;;;1.80;1.77;;;;;;;13.26;84.31;100966.78;4961457;28;20213;-75
2024/01/24 02:40:29;;;;;;;2.77;2.20;;;;;;;13.31;84.04;100966.28;4961719;28;20260;-75
2024/01/24 02:42:56;;;;;;;5.43;1.90;;;;;;;13.27;85.24;100954.19;4961519;28;20241;-75
2024/01/24 02:45:22;;;;;;;4.87;1.90;;;;;;;13.27;85.28;100964.94;4961703;28;20198;-75
2024/01/24 02:47:49;;;;;;;4.97;1.57;;;;;;;13.24;85.25;100966.09;4961632;28;20218;-75
2024/01/24 02:50:16;;;;;;;6.43;1.77;;;;;;;13.24;85.57;100973.31;4961434;28;20209;-76
2024/01/24 02:52:42;;;;;;;1.40;1.40;;;;;;;13.14;85.81;100948.44;4961656;28;20198;-75
2024/01/24 02:55:14;;;;;;;1.67;1.57;;;;;;;13.14;85.81;100926.97;4961387;28;20197;-75
2024/01/24 02:57:41;;;;;;;1.93;1.50;;;;;;;13.15;86.15;100934.84;4961449;28;20202;-75
2024/01/24 03:00:09;;;;;;;2.37;2.30;;;;;;;13.22;85.40;100927.00;4961261;28;20242;-75
2024/01/24 03:02:35;;;;;;;2.30;2.10;;;;;;;13.26;85.11;100931.03;4961310;28;20190;-75
2024/01/24 03:05:02;;;;;;;1.70;1.70;;;;;;;13.28;84.91;100943.28;4961324;28;20249;-75
2024/01/24 03:07:29;;;;;;;1.63;1.63;;;;;;;13.22;84.43;100932.38;4961189;28;20207;-75
2024/01/24 03:09:55;;;;;;;1.70;1.70;;;;;;;13.15;84.28;100934.03;4961259;28;20209;-75
2024/01/24 03:12:22;;;;;;;1.97;1.97;;;;;;;13.22;84.65;100938.59;4961461;28;20190;-75
2024/01/24 03:14:49;;;;;;;2.80;1.80;;;;;;;13.33;84.25;100920.47;4960565;28;20201;-75
2024/01/24 03:17:17;;;;;;;1.60;1.60;;;;;;;13.34;84.41;100917.63;4961125;28;20206;-74
2024/01/24 03:19:43;;;;;;;2.20;1.80;;;;;;;13.36;84.57;100929.06;4961050;28;20571;-75
2024/01/24 03:22:10;;;;;;;4.27;2.10;;;;;;;13.35;84.20;100923.84;4961122;28;20238;-75
2024/01/24 03:24:36;;;;;;;4.10;2.17;;;;;;;13.34;84.08;100909.56;4961125;28;20689;-75
2024/01/24 03:27:03;;;;;;;2.03;1.97;;;;;;;13.24;84.89;100904.34;4961018;28;20229;-75
2024/01/24 03:29:29;;;;;;;1.37;1.37;;;;;;;13.28;84.79;100911.06;4961138;28;20685;-75
2024/01/24 03:31:56;;;;;;;1.53;1.53;;;;;;;13.25;85.35;100895.28;4961064;28;20198;-74
2024/01/24 03:34:23;;;;;;;2.40;2.17;;;;;;;13.24;86.37;100911.56;4961311;28;20257;-75
2024/01/24 03:36:50;;;;;;;2.13;1.50;;;;;;;13.13;86.58;100931.50;4961517;28;20209;-75
2024/01/24 03:39:16;;;;;;;2.57;1.60;;;;;;;12.91;89.00;100937.41;4960891;28;20225;-74
2024/01/24 03:41:43;;;;;;;2.20;1.77;;;;;;;12.81;90.00;100926.00;4960958;28;20576;-74
2024/01/24 03:44:09;;;;;;;1.90;1.90;;;;;;;12.75;90.43;100932.00;4960936;28;20198;-74
2024/01/24 03:46:36;;;;;;;1.87;1.87;;;;;;;12.70;91.03;100961.13;4959113;28;20191;-74
2024/01/24 03:49:02;;;;;;;1.40;1.30;;;;;;;12.69;90.71;100943.34;4957067;29;20621;-74
2024/01/24 03:51:29;;;;;;;1.30;1.30;;;;;;;12.68;90.46;100969.34;4958435;28;20223;-74
2024/01/24 03:53:55;;;;;;;1.13;1.13;;;;;;;12.68;90.25;100973.88;4957796;28;20225;-74
2024/01/24 03:56:22;;;;;;;1.40;1.40;;;;;;;12.71;89.64;100979.75;4957757;28;20251;-75
2024/01/24 03:58:48;;;;;;;1.30;1.30;;;;;;;12.70;89.59;100988.81;4957666;28;20222;-74
2024/01/24 04:01:16;;;;;;;5.73;1.10;;;;;;;12.78;88.33;100996.91;4957735;28;20271;-74
2024/01/24 04:03:43;;;;;;;1.20;1.20;;;;;;;12.76;89.27;101003.44;4958182;28;20190;-74
2024/01/24 04:06:09;;;;;;;1.03;1.03;;;;;;;12.70;89.61;101002.22;4958206;28;20190;-74
2024/01/24 04:08:36;;;;;;;1.13;1.13;;;;;;;12.60;90.72;101022.94;4957521;28;20301;-74
2024/01/24 04:11:03;;;;;;;1.10;1.10;;;;;;;12.52;92.22;101027.44;4957804;29;20597;-75
2024/01/24 04:13:29;;;;;;;1.50;1.50;;;;;;;12.45;92.03;101005.75;4957739;28;20190;-74
2024/01/24 04:15:55;;;;;;;1.27;1.17;;;;;;;12.33;91.06;100985.53;4957975;28;20247;-74
2024/01/24 04:18:22;;;;;;;1.50;1.43;;;;;;;12.35;90.14;101018.38;4957367;28;20289;-74
2024/01/24 04:20:48;;;;;;;2.27;1.30;;;;;;;12.42;88.09;101005.22;4957561;28;20729;-74
2024/01/24 04:23:15;;;;;;;1.30;1.30;;;;;;;12.45;88.59;101029.03;4957180;28;20203;-73
2024/01/24 04:25:41;;;;;;;1.47;1.47;;;;;;;12.43;89.30;101055.16;4957576;28;20183;-74
2024/01/24 04:28:09;;;;;;;1.30;1.30;;;;;;;12.42;88.50;101013.25;4957178;28;20584;-74
2024/01/24 04:30:35;;;;;;;1.50;1.50;;;;;;;12.45;88.26;101000.38;4957176;28;20190;-74
2024/01/24 04:33:02;;;;;;;1.07;1.07;;;;;;;12.45;88.25;100997.69;4957055;28;20198;-75
2024/01/24 04:35:28;;;;;;;1.20;1.10;;;;;;;12.43;86.71;100974.72;4957081;28;20195;-74
2024/01/24 04:37:55;;;;;;;1.07;1.07;;;;;;;12.46;86.65;101001.22;4957272;28;20237;-74
2024/01/24 04:40:21;;;;;;;1.23;1.23;;;;;;;12.51;85.87;101017.69;4956897;28;20206;-74
2024/01/24 04:42:48;;;;;;;1.30;1.30;;;;;;;12.49;86.11;101025.88;4956947;28;20195;-74
2024/01/24 04:45:15;;;;;;;3.63;1.10;;;;;;;12.51;84.91;101010.50;4957206;28;20194;-74
2024/01/24 04:47:42;;;;;;;2.40;1.10;;;;;;;12.53;84.05;101042.50;4957322;28;20207;-74
2024/01/24 04:50:10;;;;;;;1.60;1.50;;;;;;;12.56;82.86;101056.41;4956805;28;20194;-74
2024/01/24 04:52:37;;;;;;;1.20;1.20;;;;;;;12.62;81.71;101029.00;4956774;28;20282;-74
2024/01/24 04:55:04;;;;;;;4.73;1.80;;;;;;;12.64;81.18;101042.25;4956969;28;20199;-74
2024/01/24 04:57:30;;;;;;;1.20;1.20;;;;;;;12.60;80.15;101036.34;4956768;28;20265;-74
2024/01/24 04:59:57;;;;;;;1.60;1.50;;;;;;;12.67;80.24;101015.09;4956560;28;20225;-74
2024/01/24 05:02:25;;;;;;;2.83;1.60;;;;;;;12.57;80.89;101033.97;4956822;28;20673;-74
2024/01/24 05:04:51;;;;;;;1.40;1.40;;;;;;;12.63;79.50;101052.13;4956797;28;20191;-74
2024/01/24 05:07:18;;;;;;;4.70;1.60;;;;;;;12.65;79.29;101012.56;4956574;28;20206;-74
2024/01/24 05:09:44;;;;;;;1.43;1.43;;;;;;;12.66;79.20;101046.44;4956443;28;20191;-74
2024/01/24 05:12:12;;;;;;;6.47;2.07;;;;;;;12.65;78.64;101047.44;4956653;28;20202;-74
2024/01/24 05:14:38;;;;;;;1.83;1.47;;;;;;;12.64;78.81;101053.84;4956321;28;20186;-74
2024/01/24 05:17:05;;;;;;;3.70;1.40;;;;;;;12.64;77.60;101047.63;4956245;28;20206;-74
2024/01/24 05:19:32;;;;;;;1.83;1.73;;;;;;;12.69;76.78;101026.50;4956194;28;20686;-74
2024/01/24 05:21:59;;;;;;;2.40;2.00;;;;;;;12.62;77.72;101052.28;4956455;28;20647;-74
2024/01/24 05:24:25;;;;;;;1.40;1.40;;;;;;;12.60;78.00;101055.13;4955965;28;20674;-74
2024/01/24 05:26:52;;;;;;;2.30;1.70;;;;;;;12.50;78.48;101030.25;4956256;28;20784;-74
2024/01/24 05:29:19;;;;;;;1.60;1.50;;;;;;;12.50;78.05;101040.13;4956105;28;20191;-74
2024/01/24 05:31:45;;;;;;;1.50;1.40;;;;;;;12.49;78.42;101066.09;4956014;28;20197;-74
2024/01/24 05:34:12;;;;;;;4.73;1.50;;;;;;;12.54;78.32;101069.16;4956027;28;20187;-74
2024/01/24 05:36:39;;;;;;;2.20;1.23;;;;;;;12.48;78.43;101069.78;4956373;28;20635;-74
2024/01/24 05:39:06;;;;;;;3.50;1.60;;;;;;;12.47;77.95;101076.16;4956359;28;20195;-74
2024/01/24 05:41:35;;;;;;;11.60;3.07;;;;;;;12.50;77.51;101078.53;4955843;28;20190;-74
2024/01/24 05:44:02;;;;;;;1.93;1.70;;;;;;;12.44;77.57;101113.16;4955211;29;20526;-74
2024/01/24 05:46:28;;;;;;;8.60;2.00;;;;;;;12.49;76.97;101122.41;4955960;28;20677;-74
2024/01/24 05:48:55;;;;;;;8.93;2.87;;;;;;;12.44;76.99;101143.47;4955713;28;20198;-74
2024/01/24 05:51:22;;;;;;;9.00;3.10;;;;;;;12.43;76.28;101144.50;4955652;28;20616;-74
2024/01/24 05:53:48;;;;;;;6.43;1.80;;;;;;;12.40;75.36;101144.78;4955665;28;20273;-74
2024/01/24 05:56:15;;;;;;;4.43;2.40;;;;;;;12.38;75.59;101144.13;4955605;28;20198;-74
2024/01/24 05:58:42;;;;;;;6.60;2.67;;;;;;;12.44;73.91;101148.84;4955518;28;20210;-74
2024/01/24 06:01:08;;;;;;;8.87;2.37;;;;;;;12.44;74.23;101129.22;4955475;28;20214;-74
2024/01/24 06:03:35;;;;;;;4.43;2.97;;;;;;;12.35;75.34;101115.75;4955554;28;20277;-74
2024/01/24 06:06:03;;;;;;;9.23;3.50;;;;;;;12.31;75.54;101126.94;4955711;28;20190;-74
2024/01/24 06:08:31;;;;;;;3.83;2.97;;;;;;;12.23;76.20;101134.91;4955454;28;20210;-74
2024/01/24 06:10:58;;;;;;;10.30;2.67;;;;;;;12.15;76.65;101135.66;4954879;28;20277;-74
2024/01/24 06:13:25;;;;;;;7.33;3.27;;;;;;;12.07;77.68;101129.38;4955398;28;20191;-74
2024/01/24 06:15:51;;;;;;;12.57;3.10;;;;;;;12.01;77.98;101152.25;4955637;28;20194;-74
2024/01/24 06:18:18;;;;;;;11.17;3.03;;;;;;;11.97;78.69;101158.06;4955549;28;20245;-74
2024/01/24 06:20:48;;;;;;;19.77;3.17;;;;;;;11.98;77.64;101146.34;4955195;28;20237;-74
2024/01/24 06:23:15;;;;;;;9.57;3.03;;;;;;;11.94;78.78;101150.31;4955443;28;20194;-74
2024/01/24 06:25:42;;;;;;;11.23;3.43;;;;;;;11.82;79.71;101163.09;4955223;28;20610;-74
2024/01/24 06:28:09;;;;;;;15.03;4.07;;;;;;;11.79;79.21;101176.78;4955190;28;20210;-74
2024/01/24 06:30:35;;;;;;;4.57;2.77;;;;;;;11.78;79.25;101180.47;4955731;28;20171;-74
2024/01/24 06:33:02;;;;;;;14.37;3.90;;;;;;;11.73;79.60;101196.13;4955120;28;20183;-74
2024/01/24 06:35:31;;;;;;;10.70;3.43;;;;;;;11.84;76.20;101182.53;4955379;28;20621;-74
2024/01/24 06:37:57;;;;;;;6.97;3.00;;;;;;;11.89;75.40;101205.22;4955582;28;20261;-73
2024/01/24 06:40:24;;;;;;;12.40;3.50;;;;;;;11.95;74.27;101211.81;4955264;28;20736;-74
2024/01/24 06:42:50;;;;;;;18.60;3.90;;;;;;;11.80;74.48;101224.00;4955053;28;20241;-74
2024/01/24 06:45:17;;;;;;;9.47;4.17;;;;;;;11.82;74.23;101222.03;4955113;28;20261;-73
2024/01/24 06:47:44;;;;;;;14.63;3.43;;;;;;;11.88;73.30;101200.03;4954919;28;20689;-74
2024/01/24 06:50:13;;;;;;;17.10;3.93;;;;;;;11.92;72.48;101206.75;4954976;28;20705;-74
2024/01/24 06:52:40;;;;;;;15.50;4.23;;;;;;;11.92;72.08;101208.59;4954990;28;20570;-74
2024/01/24 06:55:08;;;;;;;25.90;3.93;;;;;;;11.95;71.91;101210.97;4955516;28;20266;-74
2024/01/24 06:57:35;;;;;;;10.27;3.57;;;;;;;11.96;71.21;101226.06;4954828;28;20718;-73
2024/01/24 07:00:04;;;;;;;25.60;4.10;;;;;;;12.01;70.65;101205.03;4955399;28;20237;-73
2024/01/24 07:02:31;;;;;;;21.07;4.23;;;;;;;11.98;71.64;101218.69;4955159;28;20182;-73
2024/01/24 07:04:57;;;;;;;10.93;3.90;;;;;;;11.99;70.80;101229.28;4954830;28;20187;-74
2024/01/24 07:07:25;;;;;;;10.63;3.53;;;;;;;12.00;71.13;101247.06;4954778;28;20210;-74
2024/01/24 07:09:51;;;;;;;13.00;3.57;;;;;;;11.98;70.81;101243.66;4954833;28;20191;-73
2024/01/24 07:12:20;;;;;;;15.70;4.00;;;;;;;12.03;70.76;101251.25;4954812;28;20187;-73
2024/01/24 07:14:48;;;;;;;15.40;4.30;;;;;;;12.02;71.32;101244.22;4955044;28;20266;-73
2024/01/24 07:17:18;;;;;;;15.70;3.73;;;;;;;11.94;71.87;101276.25;4954751;28;20242;-73
2024/01/24 07:19:45;;;;;;;15.20;3.43;;;;;;;11.96;71.75;101287.69;4954916;28;20199;-73
2024/01/24 07:22:11;;;;;;;30.60;4.67;;;;;;;11.93;72.27;101302.22;4955664;28;20193;-73
2024/01/24 07:24:38;;;;;;;18.67;4.27;;;;;;;11.79;73.51;101300.03;4958265;28;20206;-73
2024/01/24 07:27:04;;;;;;;11.70;3.27;;;;;;;11.68;73.93;101317.06;4958457;28;20246;-73
2024/01/24 07:29:31;;;;;;;13.67;3.67;;;;;;;11.76;72.66;101305.66;4958816;28;20199;-73
2024/01/24 07:31:57;;;;;;;21.90;4.43;;;;;;;11.60;75.01;101327.66;4958782;28;20633;-73
2024/01/24 07:34:24;;;;;;;21.63;4.50;;;;;;;11.46;75.52;101312.88;4958702;28;20348;-73
2024/01/24 07:36:51;;;;;;;20.97;4.77;;;;;;;11.38;75.47;101322.59;4958265;28;20210;-73
2024/01/24 07:39:17;;;;;;;19.77;5.07;;;;;;;11.43;72.92;101339.09;4959199;28;20579;-73
2024/01/24 07:41:44;;;;;;;16.73;4.47;;;;;;;11.39;73.18;101337.69;4957957;28;20203;-73
2024/01/24 07:44:10;;;;;;;18.77;4.50;;;;;;;11.41;72.10;101352.59;4958029;28;20194;-73
2024/01/24 07:46:43;;;;;;;26.87;5.90;;;;;;;11.46;71.78;101357.53;4958354;28;20191;-73
2024/01/24 07:49:10;;;;;;;22.50;4.30;;;;;;;11.48;69.87;101326.13;4957923;29;20191;-73
2024/01/24 07:51:40;;;;;;;19.40;5.00;;;;;;;11.49;68.99;101337.69;4958157;28;20202;-73
2024/01/24 07:54:07;;;;;;;27.17;4.57;;;;;;;11.41;69.04;101349.91;4957851;28;20190;-73
2024/01/24 07:56:34;;;;;;;18.53;4.60;;;;;;;11.42;68.25;101369.50;4957965;28;20586;-73
2024/01/24 07:59:01;;;;;;;26.63;4.90;;;;;;;11.38;67.86;101381.50;4958271;28;20191;-73
2024/01/24 08:01:28;;;;;;;22.73;5.03;;;;;;;11.36;67.39;101396.88;4957918;28;20558;-73
2024/01/24 08:03:55;;;;;;;24.10;5.17;;;;;;;11.42;67.17;101390.94;4957565;28;20700;-73
2024/01/24 08:06:22;;;;;;;29.00;4.90;;;;;;;11.35;66.14;101384.47;4957843;28;20614;-72
2024/01/24 08:08:50;;;;;;;29.53;5.07;;;;;;;11.38;65.89;101394.88;4957622;28;20198;-73
2024/01/24 08:11:17;;;;;;;14.80;3.77;;;;;;;11.31;65.90;101402.63;4958117;28;20606;-73
2024/01/24 08:13:44;;;;;;;24.17;4.80;;;;;;;11.35;64.49;101389.81;4957755;28;20186;-73
2024/01/24 08:16:11;;;;;;;22.57;4.50;;;;;;;11.33;65.05;101431.94;4957459;28;20199;-73
2024/01/24 08:18:37;;;;;;;21.83;5.57;;;;;;;11.32;64.72;101430.25;4957309;28;20238;-73
2024/01/24 08:21:05;;;;;;;11.77;4.27;;;;;;;11.31;64.63;101420.53;4957222;28;20210;-73
2024/01/24 08:23:34;;;;;;;27.70;5.53;;;;;;;11.24;65.24;101433.63;4957338;28;20203;-73
2024/01/24 08:26:14;;;;;;;24.53;5.00;;;;;;;11.24;65.51;101435.47;4957338;28;20182;-73
2024/01/24 08:28:42;;;;;;;31.93;6.47;;;;;;;11.24;65.57;101430.94;4957060;28;20702;-73
2024/01/24 08:31:09;;;;;;;28.53;5.77;;;;;;;11.20;65.49;101423.34;4957706;28;20194;-73
2024/01/24 08:33:36;;;;;;;21.93;4.87;;;;;;;11.18;66.18;101410.09;4956688;28;20198;-73
2024/01/24 08:36:03;;;;;;;14.27;4.43;;;;;;;11.17;65.92;101429.78;4957055;28;20674;-73
2024/01/24 08:38:30;;;;;;;32.70;5.27;;;;;;;11.19;65.95;101429.66;4957014;28;20221;-73
2024/01/24 08:40:56;;;;;;;26.13;5.73;;;;;;;11.17;65.61;101432.47;4957174;28;20211;-73
2024/01/24 08:43:23;;;;;;;29.13;5.63;;;;;;;11.18;66.63;101426.16;4956947;28;20262;-72
2024/01/24 08:45:50;;;;;;;21.07;5.90;;;;;;;11.20;65.81;101445.56;4956978;28;20250;-73
2024/01/24 08:48:17;;;;;;;29.27;6.13;;;;;;;11.19;66.09;101459.09;4957252;28;20242;-73
2024/01/24 08:50:44;;;;;;;26.90;5.53;;;;;;;11.20;66.46;101444.75;4957077;28;20194;-73
2024/01/24 08:53:10;;;;;;;19.80;4.90;;;;;;;11.20;65.89;101461.63;4957021;28;20201;-73
2024/01/24 08:55:37;;;;;;;32.67;5.50;;;;;;;11.16;66.03;101460.22;4956660;28;20199;-73
2024/01/24 08:58:03;;;;;;;25.47;5.03;;;;;;;11.14;66.62;101470.22;4956704;28;20286;-73
2024/01/24 09:00:30;;;;;;;22.60;5.17;;;;;;;11.20;65.74;101492.94;4957112;28;20207;-73
2024/01/24 09:02:58;;;;;;;30.77;5.30;;;;;;;11.16;65.75;101486.97;4956785;28;20734;-73
2024/01/24 09:05:25;;;;;;;20.90;4.67;;;;;;;11.13;66.67;101494.44;4956829;28;20627;-73
2024/01/24 09:07:52;;;;;;;27.27;5.50;;;;;;;11.14;67.02;101512.19;4956430;28;20210;-73
2024/01/24 09:10:19;;;;;;;31.40;6.00;;;;;;;11.17;65.54;101506.56;4956443;28;20187;-73
2024/01/24 09:12:46;;;;;;;26.07;4.70;;;;;;;11.13;65.84;101522.03;4956637;28;20666;-73
2024/01/24 09:15:12;;;;;;;26.97;5.60;;;;;;;11.10;65.41;101487.53;4956581;28;20179;-73
2024/01/24 09:17:39;;;;;;;21.20;5.07;;;;;;;11.05;65.57;101505.81;4956246;28;20242;-73
2024/01/24 09:20:07;;;;;;;21.40;3.60;;;;;;;11.06;65.25;101510.19;4956224;28;20282;-73
2024/01/24 09:22:34;;;;;;;37.57;5.03;;;;;;;11.04;65.01;101505.94;4956228;28;20191;-73
2024/01/24 09:25:00;;;;;;;27.20;5.03;;;;;;;11.02;65.40;101515.97;4956083;28;20213;-73
2024/01/24 09:27:31;;;;;;;30.60;5.53;;;;;;;11.00;65.50;101526.78;4956274;28;20214;-73
2024/01/24 09:29:57;;;;;;;22.93;5.20;;;;;;;10.99;64.70;101531.28;4956095;28;20733;-72
2024/01/24 09:32:24;;;;;;;29.83;5.63;;;;;;;11.00;65.75;101559.75;4956314;29;20182;-73
2024/01/24 09:34:51;;;;;;;41.97;6.30;;;;;;;11.03;64.88;101560.47;4956233;28;20213;-73
2024/01/24 09:37:19;;;;;;;28.93;3.97;;;;;;;11.03;65.59;101529.22;4955915;28;20210;-74
2024/01/24 09:39:48;;;;;;;17.97;4.27;;;;;;;11.00;65.35;101540.16;4956227;28;20335;-73
2024/01/24 09:42:25;;;;;;;20.33;4.93;;;;;;;10.94;65.62;101538.03;4956358;28;20234;-73
2024/01/24 09:44:53;;;;;;;36.77;6.53;;;;;;;11.00;65.20;101541.00;4955101;28;20171;-73
2024/01/24 09:47:23;;;;;;;37.73;5.40;;;;;;;11.05;65.90;101545.97;4956048;28;20644;-73
2024/01/24 09:49:51;;;;;;;44.83;5.70;;;;;;;11.08;65.96;101567.09;4956099;28;20681;-73
2024/01/24 09:52:23;;;;;;;25.03;5.53;;;;;;;11.07;65.30;101561.91;4955739;28;20552;-73
2024/01/24 09:54:57;;;;;;;23.13;6.00;;;;;;;11.08;65.02;101575.13;4955721;28;20638;-72
2024/01/24 09:57:26;;;;;;;35.20;6.13;;;;;;;11.05;66.22;101604.81;4955626;28;20269;-73
2024/01/24 09:59:53;;;;;;;26.00;5.30;;;;;;;11.05;65.75;101603.97;4955573;28;20201;-73
2024/01/24 10:02:20;;;;;;;33.07;6.50;;;;;;;11.06;66.68;101617.25;4956010;28;20269;-73
2024/01/24 10:04:50;;;;;;;19.67;4.50;;;;;;;11.06;66.12;101617.25;4954364;29;20245;-73
2024/01/24 10:07:18;;;;;;;21.93;4.20;;;;;;;11.08;65.72;101609.06;4955999;28;20218;-73
2024/01/24 10:10:05;;;;;;;24.37;5.20;;;;;;;11.09;65.63;101619.63;4955401;28;20682;-73
2024/01/24 10:12:31;;;;;;;22.77;5.20;;;;;;;11.07;65.36;101604.72;4955486;28;20174;-73
2024/01/24 10:14:58;;;;;;;22.40;5.87;;;;;;;11.07;65.67;101605.56;4955406;28;20194;-75
2024/01/24 10:17:25;;;;;;;26.90;6.10;;;;;;;11.03;66.57;101612.16;4955269;28;20785;-72
2024/01/24 10:19:51;;;;;;;15.60;4.50;;;;;;;11.03;66.31;101624.69;4955627;28;20205;-73
2024/01/24 10:22:19;;;;;;;16.33;4.70;;;;;;;11.03;66.56;101597.94;4955780;28;20229;-73
2024/01/24 10:24:45;;;;;;;26.67;5.47;;;;;;;11.00;66.50;101605.22;4955230;28;20194;-73
2024/01/24 10:27:13;;;;;;;27.67;5.70;;;;;;;11.04;65.90;101621.00;4955611;28;20210;-73
2024/01/24 10:29:40;;;;;;;25.97;6.73;;;;;;;11.06;66.18;101608.34;4955185;28;20191;-73
2024/01/24 10:32:09;;;;;;;23.70;5.67;;;;;;;11.03;66.43;101613.97;4955230;28;20201;-73
2024/01/24 10:34:37;;;;;;;34.63;5.60;;;;;;;11.03;65.99;101613.97;4955154;28;20194;-72
2024/01/24 10:37:07;;;;;;;17.57;4.77;;;;;;;11.02;66.49;101633.69;4955258;28;20218;-73
2024/01/24 10:39:35;;;;;;;20.83;5.13;;;;;;;11.06;66.11;101613.72;4955400;28;20237;-73
2024/01/24 10:42:06;;;;;;;30.27;5.43;;;;;;;11.02;66.88;101620.31;4955282;28;20215;-73
2024/01/24 10:44:38;;;;;;;27.73;5.37;;;;;;;11.05;65.66;101618.22;4955615;28;20182;-73
2024/01/24 10:47:05;;;;;;;24.90;5.00;;;;;;;11.06;66.26;101629.75;4954996;28;20214;-73
2024/01/24 10:49:32;;;;;;;26.90;5.37;;;;;;;11.08;66.04;101638.50;4955011;29;20205;-73
2024/01/24 10:51:58;;;;;;;32.23;6.10;;;;;;;11.11;65.06;101620.38;4954987;28;20190;-73
2024/01/24 10:54:26;;;;;;;24.90;5.40;;;;;;;11.15;66.31;101634.31;4955492;28;20190;-73
2024/01/24 10:56:53;;;;;;;22.27;4.47;;;;;;;11.12;66.12;101634.59;4957101;28;20215;-72
2024/01/24 10:59:20;;;;;;;28.60;4.57;;;;;;;11.12;65.66;101639.94;4958805;28;20673;-73
2024/01/24 11:01:47;;;;;;;23.30;5.93;;;;;;;11.11;65.93;101654.31;4959281;28;20214;-73
2024/01/24 11:04:19;;;;;;;31.73;5.43;;;;;;;11.13;65.55;101646.97;4958970;28;20258;-73
2024/01/24 11:06:59;;;;;;;21.67;6.10;;;;;;;11.10;65.06;101639.22;4959013;28;20206;-73
2024/01/24 11:09:53;;;;;;;21.57;5.33;;;;;;;11.08;65.68;101634.00;4958737;28;20183;-73
2024/01/24 11:12:21;;;;;;;19.73;4.77;;;;;;;11.10;65.02;101649.94;4958869;28;20686;-72
2024/01/24 11:14:48;;;;;;;16.23;4.77;;;;;;;11.13;65.36;101657.69;4958518;28;20226;-73
2024/01/24 11:17:16;;;;;;;22.20;4.67;;;;;;;11.13;64.73;101671.06;4958428;28;20224;-72
2024/01/24 11:19:42;;;;;;;21.03;4.77;;;;;;;11.12;64.67;101669.38;4958453;28;20194;-73
2024/01/24 11:22:11;;;;;;;17.23;5.17;;;;;;;11.10;64.04;101682.03;4958555;28;20214;-72